createdAt,value
2024-01-16T00:00:00.460Z,9.83
2024-01-16T00:02:28.791Z,8.33
2024-01-16T00:04:59.421Z,9.90
2024-01-16T00:07:27.774Z,13.97
2024-01-16T00:09:57.425Z,11.30
2024-01-16T00:12:25.710Z,10.70
2024-01-16T00:14:55.085Z,12.30
2024-01-16T00:17:23.387Z,10.50
2024-01-16T00:19:51.649Z,11.13
2024-01-16T00:22:19.931Z,10.20
2024-01-16T00:24:48.146Z,11.17
2024-01-16T00:27:17.818Z,9.47
2024-01-16T00:29:46.104Z,13.10
2024-01-16T00:32:17.341Z,10.83
2024-01-16T00:34:45.874Z,10.57
2024-01-16T00:37:14.097Z,10.23
2024-01-16T00:39:42.342Z,11.40
2024-01-16T00:42:10.560Z,11.43
2024-01-16T00:44:40.234Z,11.00
2024-01-16T00:47:08.902Z,10.80
2024-01-16T00:49:38.604Z,12.10
2024-01-16T00:52:07.799Z,11.73
2024-01-16T00:54:36.039Z,12.30
2024-01-16T00:57:04.435Z,12.67
2024-01-16T00:59:32.696Z,10.47
2024-01-16T01:02:02.505Z,9.67
2024-01-16T01:04:33.172Z,10.70
2024-01-16T01:07:01.414Z,10.17
2024-01-16T01:09:29.674Z,9.67
2024-01-16T01:11:57.983Z,9.00
2024-01-16T01:14:27.115Z,10.07
2024-01-16T01:16:55.487Z,10.43
2024-01-16T01:19:25.319Z,9.33
2024-01-16T01:21:53.608Z,10.53
2024-01-16T01:24:21.836Z,10.27
2024-01-16T01:26:50.085Z,9.03
2024-01-16T01:29:18.511Z,9.63
2024-01-16T01:31:49.123Z,10.90
2024-01-16T01:34:17.881Z,11.20
2024-01-16T01:36:47.645Z,10.33
2024-01-16T01:39:16.087Z,10.20
2024-01-16T01:41:44.373Z,10.93
2024-01-16T01:44:17.190Z,9.30
2024-01-16T01:46:47.444Z,8.20
2024-01-16T01:49:17.776Z,10.27
2024-01-16T01:51:47.862Z,9.13
2024-01-16T01:54:17.577Z,8.97
2024-01-16T01:56:50.805Z,8.17
2024-01-16T01:59:20.614Z,8.90
2024-01-16T02:01:50.604Z,8.73
2024-01-16T02:04:20.013Z,7.37
2024-01-16T02:06:50.765Z,9.53
2024-01-16T02:09:19.744Z,9.20
2024-01-16T02:11:48.292Z,10.43
2024-01-16T02:14:16.645Z,9.97
2024-01-16T02:16:46.097Z,9.77
2024-01-16T02:19:14.548Z,9.53
2024-01-16T02:21:50.764Z,9.87
2024-01-16T02:24:21.650Z,10.17
2024-01-16T02:26:50.066Z,9.70
2024-01-16T02:29:18.894Z,10.90
2024-01-16T02:31:47.218Z,11.17
2024-01-16T02:34:15.761Z,8.43
2024-01-16T02:36:44.159Z,10.97
2024-01-16T02:39:12.708Z,9.07
2024-01-16T02:41:42.390Z,8.63
2024-01-16T02:44:10.710Z,9.13
2024-01-16T02:46:40.106Z,10.03
2024-01-16T02:49:08.898Z,10.00
2024-01-16T02:51:37.188Z,10.57
2024-01-16T02:54:05.886Z,9.57
2024-01-16T02:56:34.215Z,9.63
2024-01-16T02:59:03.998Z,9.43
2024-01-16T03:01:32.241Z,10.67
2024-01-16T03:04:00.525Z,9.10
2024-01-16T03:06:30.326Z,10.27
2024-01-16T03:08:58.897Z,8.37
2024-01-16T03:11:27.223Z,8.70
2024-01-16T03:13:55.508Z,10.37
2024-01-16T03:16:25.136Z,8.50
2024-01-16T03:18:53.427Z,12.03
2024-01-16T03:21:21.706Z,8.43
2024-01-16T03:23:53.162Z,9.67
2024-01-16T03:26:21.570Z,8.70
2024-01-16T03:28:50.259Z,7.90
2024-01-16T03:31:19.705Z,8.13
2024-01-16T03:33:49.460Z,8.33
2024-01-16T03:36:17.924Z,8.70
2024-01-16T03:38:46.370Z,9.47
2024-01-16T03:41:14.715Z,7.17
2024-01-16T03:43:44.080Z,9.80
2024-01-16T03:46:13.346Z,8.47
2024-01-16T03:48:41.653Z,7.60
2024-01-16T03:51:11.769Z,7.87
2024-01-16T03:53:40.052Z,7.17
2024-01-16T03:56:09.175Z,8.43
2024-01-16T03:58:37.486Z,8.13
2024-01-16T04:01:06.095Z,9.17
2024-01-16T04:03:35.262Z,8.37
2024-01-16T04:06:03.839Z,8.27
2024-01-16T04:08:36.491Z,10.20
2024-01-16T04:11:04.794Z,8.77
2024-01-16T04:13:32.997Z,8.47
2024-01-16T04:16:01.226Z,9.20
2024-01-16T04:18:29.667Z,9.00
2024-01-16T04:20:58.002Z,9.93
2024-01-16T04:23:26.270Z,9.63
2024-01-16T04:25:56.142Z,9.43
2024-01-16T04:28:24.647Z,10.07
2024-01-16T04:30:53.249Z,8.47
2024-01-16T04:33:25.748Z,8.53
2024-01-16T04:35:54.058Z,8.60
2024-01-16T04:38:22.385Z,9.03
2024-01-16T04:40:50.688Z,9.57
2024-01-16T04:43:20.267Z,9.40
2024-01-16T04:45:48.741Z,10.40
2024-01-16T04:48:17.257Z,10.73
2024-01-16T04:50:46.698Z,8.87
2024-01-16T04:53:15.098Z,9.10
2024-01-16T04:55:43.386Z,10.73
2024-01-16T04:58:11.847Z,11.03
2024-01-16T05:00:41.462Z,9.07
2024-01-16T05:03:09.720Z,9.20
2024-01-16T05:05:38.010Z,9.37
2024-01-16T05:08:06.632Z,8.63
2024-01-16T05:10:35.061Z,10.17
2024-01-16T05:13:03.286Z,8.60
2024-01-16T05:15:31.774Z,8.67
2024-01-16T05:18:01.524Z,9.57
2024-01-16T05:20:30.336Z,11.07
2024-01-16T05:22:58.595Z,11.07
2024-01-16T05:25:26.862Z,10.37
2024-01-16T05:27:55.081Z,9.60
2024-01-16T05:30:25.781Z,10.53
2024-01-16T05:33:02.125Z,9.70
2024-01-16T05:35:31.908Z,8.27
2024-01-16T05:38:01.089Z,6.90
2024-01-16T05:40:29.348Z,6.83
2024-01-16T05:42:58.213Z,7.30
2024-01-16T05:45:26.342Z,6.17
2024-01-16T05:47:54.488Z,4.57
2024-01-16T05:50:22.674Z,5.33
2024-01-16T05:52:52.436Z,4.37
2024-01-16T05:55:23.541Z,5.83
2024-01-16T05:57:51.809Z,5.07
2024-01-16T06:00:23.733Z,5.70
2024-01-16T06:02:51.844Z,6.83
2024-01-16T06:05:20.048Z,7.23
2024-01-16T06:07:48.132Z,6.80
2024-01-16T06:10:17.825Z,7.03
2024-01-16T06:12:45.885Z,9.77
2024-01-16T06:15:14.025Z,10.70
2024-01-16T06:17:42.971Z,12.80
2024-01-16T06:20:12.092Z,13.40
2024-01-16T06:22:40.175Z,12.47
2024-01-16T06:25:08.743Z,12.03
2024-01-16T06:27:38.172Z,10.40
2024-01-16T06:30:09.927Z,8.00
2024-01-16T06:32:38.329Z,8.40
2024-01-16T06:35:08.763Z,7.60
2024-01-16T06:37:37.468Z,6.40
2024-01-16T06:40:06.467Z,6.83
2024-01-16T06:42:34.558Z,5.80
2024-01-16T06:45:04.060Z,6.77
2024-01-16T06:47:32.258Z,8.47
2024-01-16T06:50:00.425Z,7.80
2024-01-16T06:52:28.530Z,8.67
2024-01-16T06:54:57.153Z,7.60
2024-01-16T06:57:25.406Z,6.53
2024-01-16T06:59:53.760Z,9.30
2024-01-16T07:02:23.456Z,6.47
2024-01-16T07:05:01.181Z,7.57
2024-01-16T07:07:29.325Z,10.47
2024-01-16T07:09:57.379Z,9.60
2024-01-16T07:12:25.431Z,8.23
2024-01-16T07:14:53.608Z,8.67
2024-01-16T07:17:23.143Z,8.37
2024-01-16T07:19:51.400Z,11.87
2024-01-16T07:22:19.474Z,10.27
2024-01-16T07:24:47.551Z,9.60
2024-01-16T07:27:15.673Z,10.33
2024-01-16T07:29:43.896Z,9.93
2024-01-16T07:32:12.495Z,10.10
2024-01-16T07:34:42.287Z,10.63
2024-01-16T07:37:10.502Z,9.80
2024-01-16T07:39:38.593Z,10.33
2024-01-16T07:42:05.923Z,10.07
2024-01-16T07:44:34.011Z,10.37
2024-01-16T07:47:02.104Z,8.73
2024-01-16T07:49:30.510Z,9.70
2024-01-16T07:51:59.924Z,9.07
2024-01-16T07:54:28.045Z,10.40
2024-01-16T07:56:56.138Z,9.43
2024-01-16T07:59:24.280Z,9.20
2024-01-16T08:01:52.381Z,8.80
2024-01-16T08:04:20.521Z,14.60
2024-01-16T08:06:48.982Z,11.10
2024-01-16T08:09:18.710Z,12.77
2024-01-16T08:11:47.054Z,12.50
2024-01-16T08:14:15.213Z,13.33
2024-01-16T08:16:43.294Z,14.83
2024-01-16T08:19:11.562Z,14.83
2024-01-16T08:21:39.692Z,13.53
2024-01-16T08:24:07.893Z,16.60
2024-01-16T08:26:37.986Z,17.73
2024-01-16T08:29:06.263Z,17.43
2024-01-16T08:31:34.396Z,16.30
2024-01-16T08:34:02.667Z,18.17
2024-01-16T08:36:30.907Z,18.57
2024-01-16T08:39:00.689Z,17.20
2024-01-16T08:41:28.834Z,16.63
2024-01-16T08:43:58.273Z,15.57
2024-01-16T08:46:26.410Z,14.57
2024-01-16T08:48:55.370Z,12.40
2024-01-16T08:51:23.470Z,13.23
2024-01-16T08:53:51.702Z,12.43
2024-01-16T08:56:19.953Z,10.00
2024-01-16T08:58:48.110Z,9.30
2024-01-16T09:01:17.724Z,10.30
2024-01-16T09:03:45.925Z,8.97
2024-01-16T09:06:14.124Z,8.30
2024-01-16T09:08:42.277Z,10.57
2024-01-16T09:11:10.612Z,9.70
2024-01-16T09:13:44.904Z,9.90
2024-01-16T09:16:13.022Z,7.87
2024-01-16T09:18:42.591Z,8.23
2024-01-16T09:21:11.009Z,9.27
2024-01-16T09:23:39.077Z,11.83
2024-01-16T09:26:07.134Z,6.03
2024-01-16T09:28:35.228Z,8.37
2024-01-16T09:31:03.374Z,8.00
2024-01-16T09:33:31.479Z,7.77
2024-01-16T09:36:01.073Z,8.40
2024-01-16T09:38:29.487Z,7.10
2024-01-16T09:41:04.074Z,8.77
2024-01-16T09:43:33.909Z,8.30
2024-01-16T09:46:03.813Z,5.43
2024-01-16T09:48:33.654Z,5.40
2024-01-16T09:51:04.239Z,5.37
2024-01-16T09:53:32.413Z,6.23
2024-01-16T09:56:04.553Z,6.20
2024-01-16T09:58:38.597Z,6.20
2024-01-16T10:01:07.498Z,9.13
2024-01-16T10:03:37.458Z,7.63
2024-01-16T10:06:10.732Z,7.30
2024-01-16T10:08:40.103Z,6.80
2024-01-16T10:11:09.429Z,6.43
2024-01-16T10:13:38.931Z,6.50
2024-01-16T10:16:07.104Z,5.63
2024-01-16T10:18:36.133Z,7.53
2024-01-16T10:21:04.744Z,7.13
2024-01-16T10:23:35.190Z,7.03
2024-01-16T10:26:10.692Z,8.30
2024-01-16T10:28:40.432Z,7.20
2024-01-16T10:31:09.666Z,7.47
2024-01-16T10:33:40.355Z,5.90
2024-01-16T10:36:13.437Z,9.03
2024-01-16T10:38:44.856Z,8.20
2024-01-16T10:41:14.237Z,6.50
2024-01-16T10:43:43.083Z,7.87
2024-01-16T10:46:13.013Z,7.00
2024-01-16T10:48:43.239Z,7.87
2024-01-16T10:51:13.635Z,9.50
2024-01-16T10:53:45.638Z,6.90
2024-01-16T10:56:14.508Z,5.73
2024-01-16T10:58:44.131Z,8.07
2024-01-16T11:01:15.316Z,8.37
2024-01-16T11:03:49.940Z,5.37
2024-01-16T11:06:20.337Z,6.63
2024-01-16T11:08:51.207Z,6.93
2024-01-16T11:11:19.649Z,6.77
2024-01-16T11:13:48.794Z,5.87
2024-01-16T11:16:17.010Z,8.93
2024-01-16T11:18:45.295Z,8.70
2024-01-16T11:21:17.805Z,8.03
2024-01-16T11:23:48.155Z,7.20
2024-01-16T11:26:33.563Z,8.60
2024-01-16T11:29:03.480Z,7.43
2024-01-16T11:31:33.090Z,8.27
2024-01-16T11:34:02.289Z,8.93
2024-01-16T11:36:55.489Z,7.77
2024-01-16T11:39:26.097Z,8.10
2024-01-16T11:41:57.568Z,8.40
2024-01-16T11:44:47.989Z,7.27
2024-01-16T11:47:21.000Z,7.73
2024-01-16T11:49:49.810Z,9.27
2024-01-16T11:52:41.869Z,9.10
2024-01-16T11:55:27.987Z,8.87
2024-01-16T11:58:23.613Z,8.57
2024-01-16T12:00:53.620Z,9.57
2024-01-16T12:03:31.749Z,10.07
2024-01-16T12:06:07.752Z,8.87
2024-01-16T12:08:37.784Z,7.00
2024-01-16T12:11:06.592Z,8.37
2024-01-16T12:13:36.219Z,8.03
2024-01-16T12:16:05.231Z,8.83
2024-01-16T12:18:40.282Z,7.53
2024-01-16T12:21:17.926Z,7.93
2024-01-16T12:23:52.746Z,9.13
2024-01-16T12:26:28.577Z,6.53
2024-01-16T12:29:00.114Z,9.67
2024-01-16T12:31:29.500Z,9.27
2024-01-16T12:34:09.009Z,9.23
2024-01-16T12:36:38.546Z,9.60
2024-01-16T12:39:06.848Z,7.90
2024-01-16T12:41:42.882Z,9.47
2024-01-16T12:44:16.945Z,9.20
2024-01-16T12:46:46.850Z,10.93
2024-01-16T12:49:15.298Z,6.73
2024-01-16T12:51:43.624Z,6.77
2024-01-16T12:54:16.390Z,6.77
2024-01-16T12:56:44.805Z,6.57
2024-01-16T12:59:15.134Z,7.50
2024-01-16T13:01:45.260Z,6.57
2024-01-16T13:04:15.152Z,6.37
2024-01-16T13:06:45.314Z,6.27
2024-01-16T13:09:18.067Z,5.13
2024-01-16T13:11:51.798Z,5.03
2024-01-16T13:14:23.264Z,5.83
2024-01-16T13:16:52.097Z,5.30
2024-01-16T13:19:20.852Z,6.77
2024-01-16T13:21:49.655Z,6.10
2024-01-16T13:24:19.001Z,4.90
2024-01-16T13:26:47.608Z,4.80
2024-01-16T13:29:16.580Z,5.47
2024-01-16T13:31:46.271Z,5.60
2024-01-16T13:34:15.632Z,6.07
2024-01-16T13:39:15.893Z,5.00
2024-01-16T13:41:45.435Z,5.77
2024-01-16T13:44:13.614Z,4.83
2024-01-16T13:46:53.976Z,7.20
2024-01-16T13:49:31.326Z,5.67
2024-01-16T13:51:59.474Z,4.97
2024-01-16T13:54:28.180Z,5.67
2024-01-16T13:57:06.115Z,7.27
2024-01-16T13:59:36.890Z,7.23
2024-01-16T14:02:06.182Z,6.07
2024-01-16T14:04:35.792Z,5.53
2024-01-16T14:07:12.239Z,6.60
2024-01-16T14:09:44.822Z,6.23
2024-01-16T14:12:14.563Z,6.67
2024-01-16T14:14:43.970Z,9.30
2024-01-16T14:17:12.367Z,6.60
2024-01-16T14:19:41.882Z,6.77
2024-01-16T14:22:10.133Z,7.67
2024-01-16T14:24:39.178Z,9.33
2024-01-16T14:27:08.168Z,6.37
2024-01-16T14:29:38.065Z,6.93
2024-01-16T14:32:06.882Z,6.57
2024-01-16T14:34:35.181Z,8.40
2024-01-16T14:37:04.841Z,5.70
2024-01-16T14:39:33.001Z,8.20
2024-01-16T14:42:01.580Z,6.27
2024-01-16T14:44:30.188Z,6.83
2024-01-16T14:46:58.351Z,9.30
2024-01-16T14:49:32.470Z,11.70
2024-01-16T14:52:02.317Z,10.60
2024-01-16T14:54:31.982Z,12.27
2024-01-16T14:57:00.249Z,13.90
2024-01-16T14:59:29.520Z,15.23
2024-01-16T15:01:57.620Z,13.60
2024-01-16T15:04:25.847Z,14.57
2024-01-16T15:06:55.219Z,14.50
2024-01-16T15:09:23.737Z,19.50
2024-01-16T15:11:54.052Z,18.07
2024-01-16T15:14:22.214Z,16.47
2024-01-16T15:16:50.391Z,17.87
2024-01-16T15:19:18.507Z,18.70
2024-01-16T15:21:46.673Z,21.80
2024-01-16T15:24:21.077Z,20.53
2024-01-16T15:26:49.220Z,23.70
2024-01-16T15:29:18.706Z,23.10
2024-01-16T15:31:47.173Z,19.80
2024-01-16T15:34:17.250Z,17.93
2024-01-16T15:36:46.081Z,20.10
2024-01-16T15:39:16.875Z,16.37
2024-01-16T15:41:45.860Z,18.33
2024-01-16T15:44:14.464Z,16.73
2024-01-16T15:47:01.252Z,16.87
2024-01-16T15:49:29.809Z,20.43
2024-01-16T15:52:00.113Z,18.20
2024-01-16T15:54:29.197Z,18.73
2024-01-16T15:56:57.474Z,20.30
2024-01-16T15:59:26.918Z,20.97
2024-01-16T16:01:55.095Z,16.23
2024-01-16T16:04:25.290Z,17.83
2024-01-16T16:06:53.448Z,17.07
2024-01-16T16:09:21.982Z,17.93
2024-01-16T16:11:50.556Z,18.03
2024-01-16T16:14:20.696Z,18.23
2024-01-16T16:16:51.390Z,21.27
2024-01-16T16:19:19.817Z,18.03
2024-01-16T16:21:51.460Z,17.93
2024-01-16T16:24:19.765Z,17.40
2024-01-16T16:26:48.071Z,18.27
2024-01-16T16:29:16.241Z,18.70
2024-01-16T16:31:44.504Z,17.50
2024-01-16T16:34:15.945Z,18.20
2024-01-16T16:36:45.076Z,17.27
2024-01-16T16:39:17.910Z,17.63
2024-01-16T16:41:47.761Z,16.17
2024-01-16T16:44:16.156Z,14.13
2024-01-16T16:46:44.260Z,19.27
2024-01-16T16:49:19.913Z,19.53
2024-01-16T16:51:48.744Z,20.90
2024-01-16T16:54:18.513Z,18.17
2024-01-16T16:56:47.370Z,18.97
2024-01-16T16:59:15.572Z,20.00
2024-01-16T17:01:43.727Z,21.93
2024-01-16T17:04:12.123Z,21.07
2024-01-16T17:06:40.761Z,20.90
2024-01-16T17:09:12.790Z,18.33
2024-01-16T17:11:42.627Z,20.70
2024-01-16T17:14:11.178Z,24.30
2024-01-16T17:16:41.241Z,24.53
2024-01-16T17:19:11.713Z,22.93
2024-01-16T17:21:40.471Z,22.87
2024-01-16T17:24:08.888Z,22.17
2024-01-16T17:26:38.344Z,23.33
2024-01-16T17:29:10.888Z,22.67
2024-01-16T17:31:39.494Z,25.47
2024-01-16T17:34:07.953Z,21.23
2024-01-16T17:36:39.999Z,20.43
2024-01-16T17:39:10.923Z,21.10
2024-01-16T17:41:40.240Z,19.57
2024-01-16T17:44:10.745Z,19.33
2024-01-16T17:46:38.798Z,17.37
2024-01-16T17:49:06.941Z,18.70
2024-01-16T17:51:35.470Z,18.37
2024-01-16T17:54:04.860Z,18.10
2024-01-16T17:56:32.947Z,18.30
2024-01-16T17:59:01.024Z,18.53
2024-01-16T18:01:30.670Z,18.37
2024-01-16T18:03:59.055Z,19.23
2024-01-16T18:06:27.577Z,19.27
2024-01-16T18:08:55.735Z,20.43
2024-01-16T18:11:24.327Z,24.93
2024-01-16T18:13:52.544Z,24.37
2024-01-16T18:16:20.619Z,24.20
2024-01-16T18:18:52.967Z,27.50
2024-01-16T18:21:30.843Z,24.93
2024-01-16T18:23:59.010Z,30.57
2024-01-16T18:26:27.173Z,31.50
2024-01-16T18:28:55.459Z,36.53
2024-01-16T18:31:23.544Z,39.43
2024-01-16T18:33:53.094Z,39.40
2024-01-16T18:36:25.980Z,36.20
2024-01-16T18:38:54.110Z,39.73
2024-01-16T18:41:22.891Z,35.70
2024-01-16T18:43:52.561Z,38.67
2024-01-16T18:46:22.746Z,41.57
2024-01-16T18:49:01.249Z,38.87
2024-01-16T18:51:29.420Z,35.10
2024-01-16T18:53:57.607Z,37.83
2024-01-16T18:56:25.732Z,36.43
2024-01-16T18:58:58.430Z,35.80
2024-01-16T19:01:29.825Z,37.60
2024-01-16T19:04:01.176Z,40.63
2024-01-16T19:06:30.346Z,38.60
2024-01-16T19:08:59.254Z,42.30
2024-01-16T19:12:00.041Z,43.07
2024-01-16T19:14:28.239Z,43.50
2024-01-16T19:16:59.689Z,48.70
2024-01-16T19:19:33.312Z,50.00
2024-01-16T19:22:10.241Z,46.97
2024-01-16T19:24:38.839Z,46.07
2024-01-16T19:27:07.142Z,46.00
2024-01-16T19:29:35.347Z,43.53
2024-01-16T19:32:03.510Z,45.13
2024-01-16T19:34:33.068Z,43.33
2024-01-16T19:37:02.615Z,44.90
2024-01-16T19:39:33.715Z,42.33
2024-01-16T19:42:03.254Z,45.70
2024-01-16T19:44:34.077Z,47.03
2024-01-16T19:47:02.173Z,45.20
2024-01-16T19:49:30.268Z,45.70
2024-01-16T19:52:10.762Z,43.53
2024-01-16T19:54:45.286Z,43.60
2024-01-16T19:57:24.676Z,43.83
2024-01-16T19:59:53.192Z,42.70
2024-01-16T20:02:23.104Z,38.60
2024-01-16T20:04:51.588Z,37.37
2024-01-16T20:07:21.176Z,41.43
2024-01-16T20:09:54.233Z,37.93
2024-01-16T20:12:32.519Z,39.10
2024-01-16T20:15:13.748Z,38.17
2024-01-16T20:17:42.189Z,37.63
2024-01-16T20:20:11.902Z,35.10
2024-01-16T20:22:44.725Z,38.10
2024-01-16T20:25:15.903Z,37.60
2024-01-16T20:27:51.256Z,38.47
2024-01-16T20:30:19.454Z,39.10
2024-01-16T20:32:52.672Z,42.27
2024-01-16T20:35:25.841Z,40.07
2024-01-16T20:37:55.315Z,40.67
2024-01-16T20:40:32.378Z,46.10
2024-01-16T20:43:03.031Z,47.53
2024-01-16T20:45:31.137Z,47.70
2024-01-16T20:47:59.963Z,46.93
2024-01-16T20:50:28.277Z,48.00
2024-01-16T20:52:57.845Z,46.77
2024-01-16T20:55:26.177Z,43.57
2024-01-16T20:58:05.741Z,40.73
2024-01-16T21:00:35.245Z,48.83
2024-01-16T21:03:10.387Z,50.13
2024-01-16T21:05:40.505Z,50.90
2024-01-16T21:08:12.371Z,50.93
2024-01-16T21:10:40.843Z,52.47
2024-01-16T21:13:10.295Z,52.70
2024-01-16T21:15:49.098Z,56.30
2024-01-16T21:18:17.595Z,51.40
2024-01-16T21:20:47.250Z,52.80
2024-01-16T21:23:16.913Z,62.63
2024-01-16T21:25:44.960Z,93.30
2024-01-16T21:28:13.053Z,83.70
2024-01-16T21:30:41.232Z,80.57
2024-01-16T21:33:09.466Z,78.20
2024-01-16T21:35:37.640Z,78.43
2024-01-16T21:38:05.942Z,71.30
2024-01-16T21:40:36.279Z,72.73
2024-01-16T21:43:04.677Z,67.30
2024-01-16T21:45:33.187Z,66.80
2024-01-16T21:48:02.625Z,61.97
2024-01-16T21:50:37.518Z,63.07
2024-01-16T21:53:06.942Z,65.13
2024-01-16T21:55:36.673Z,65.60
2024-01-16T21:58:05.021Z,59.53
2024-01-16T22:00:33.193Z,56.00
2024-01-16T22:03:01.424Z,55.70
2024-01-16T22:05:30.145Z,57.93
2024-01-16T22:07:58.575Z,62.73
2024-01-16T22:10:26.614Z,60.73
2024-01-16T22:12:56.104Z,54.27
2024-01-16T22:15:24.186Z,52.97
2024-01-16T22:17:52.312Z,50.57
2024-01-16T22:20:20.715Z,49.23
2024-01-16T22:22:48.855Z,48.33
2024-01-16T22:25:17.269Z,52.23
2024-01-16T22:27:46.190Z,49.70
2024-01-16T22:30:19.115Z,48.87
2024-01-16T22:32:47.425Z,48.90
2024-01-16T22:35:15.913Z,48.73
2024-01-16T22:37:47.994Z,48.07
2024-01-16T22:40:17.605Z,49.47
2024-01-16T22:42:45.956Z,48.73
2024-01-16T22:45:16.087Z,49.07
2024-01-16T22:47:44.485Z,52.60
2024-01-16T22:50:13.461Z,47.70
2024-01-16T22:52:41.845Z,51.33
2024-01-16T22:55:10.667Z,51.43
2024-01-16T22:57:40.762Z,49.87
2024-01-16T23:00:20.272Z,44.00
2024-01-16T23:02:52.139Z,45.67
2024-01-16T23:05:21.402Z,46.00
2024-01-16T23:07:50.724Z,47.07
2024-01-16T23:10:24.085Z,43.93
2024-01-16T23:12:52.225Z,45.33
2024-01-16T23:15:20.283Z,41.97
2024-01-16T23:17:50.088Z,43.87
2024-01-16T23:20:18.477Z,45.40
2024-01-16T23:22:46.744Z,43.90
2024-01-16T23:25:16.774Z,44.30
2024-01-16T23:27:45.691Z,41.57
2024-01-16T23:30:14.617Z,45.73
2024-01-16T23:32:43.298Z,39.03
2024-01-16T23:35:12.948Z,39.43
2024-01-16T23:37:44.456Z,43.23
2024-01-16T23:40:13.793Z,40.37
2024-01-16T23:42:42.614Z,47.87
2024-01-16T23:45:20.527Z,46.20
2024-01-16T23:47:55.900Z,46.30
2024-01-16T23:50:26.549Z,43.83
2024-01-16T23:52:55.201Z,39.97
2024-01-16T23:55:23.605Z,42.13
2024-01-16T23:57:51.851Z,41.87
